Crew | Aerofun Virtual



 METAR AND TAF INFORMATION
METAR FOR LPFR
ADDS - METARS form results

(2250 UTC 16 February 2020)
Data provider http://aviationweather.gov/metar/data/
 
METAR text: LPFR 162230Z 29004KT CAVOK 13/12 Q1028
Conditions at: LPFR (FARO , PT) observed 2230 UTC 16 February 2020
Temperature: 13.0°C (55°F)
Dewpoint: 12.0°C (54°F) [RH = 94%]
Pressure (altimeter): 30.35 inches Hg (1028.0 mb)
Winds: from the WNW (290 degrees) at 5 MPH (4 knots; 2.1 m/s)
Visibility: 6 or more miles (10+ km)
Ceiling: ceiling and visibility are OK
Clouds: unknown
Weather: no significant weather observed at this time

METAR text: LPFR 162200Z 31006KT CAVOK 14/13 Q1028
Conditions at: LPFR (FARO , PT) observed 2200 UTC 16 February 2020
Temperature: 14.0°C (57°F)
Dewpoint: 13.0°C (55°F) [RH = 94%]
Pressure (altimeter): 30.35 inches Hg (1028.0 mb)
Winds: from the NW (310 degrees) at 7 MPH (6 knots; 3.1 m/s)
Visibility: 6 or more miles (10+ km)
Ceiling: ceiling and visibility are OK
Clouds: unknown
Weather: no significant weather observed at this time

Forecast for: LPFR (FARO , PT)
Text: TAF LPFR 161700Z 1618/1718 25010KT CAVOK
Forecast period: 1800 UTC 16 February 2020 to 1800 UTC 17 February 2020
Forecast type: FROM: standard forecast or significant change
Winds: from the WSW (250 degrees) at 12 MPH (10 knots; 5.1 m/s)
Visibility: 6 or more miles 10+ km)
Ceiling: unknown
Clouds: missing
Weather: NSW  (no significant weather)
Text: BECMG 1618/1621 32005KT
Forecast period: 1800 UTC 16 February 2020 to 0900 UTC 17 February 2020
Forecast type: BECOMING: Conditions expected to become as follows by 2100 UTC 16 February 2020
Winds: from the NW (320 degrees) at 6 MPH (5 knots; 2.6 m/s)
Visibility: 6 or more miles 10+ km)
Ceiling: unknown
Clouds: missing
Weather: NSW  (no significant weather)
Text: BECMG 1709/1712 26010KT 9999 SCT015 BKN035
Forecast period: 0900 to 1800 UTC 17 February 2020
Forecast type: BECOMING: Conditions expected to become as follows by 1200 UTC 17 February 2020
Winds: from the W (260 degrees) at 12 MPH (10 knots; 5.1 m/s)
Visibility: 6 or more miles 10+ km)
Ceiling: 3500 feet AGL
Clouds: scattered clouds at 1500 feet AGL
broken clouds at 3500 feet AGL
Weather: NSW  (no significant weather)

 AIRPORT MAP

 RUNWAY INFORMATION
Runway 10 Runway length 8169 ft Runway width 148 ft
Runway elevation 24 ft Runway displaced threshold 148 ft Runway heading 100
Runway 28 Runway length 8169 ft Runway width 148 ft
Runway elevation 18 ft Runway displaced threshold 148 ft Runway heading 280

 AIRPORT FREQUENCIES
Type APP Name APP Frequency 119.4 MHZ
Type ATIS Name ATIS Frequency 124.2 MHZ
Type GND Name GND Frequency 118.575 MHZ
Type TWR Name TWR Frequency 118.2 MHZ

 AIRPORT NEAR NAVIGATION AIDS
Type NDB Name Faro Frequency 332 KHZ
Type VOR-DME Name Faro Frequency 112800 KHZ